sensor_id;sensor_type;location;lat;lon;timestamp;P1;durP1;ratioP1;P2;durP2;ratioP2
10132;SDS011;5106;50.926;7.080;2023-06-26T00:02:17;6.95;;;6.25;;
10132;SDS011;5106;50.926;7.080;2023-06-26T00:04:43;8.68;;;6.38;;
10132;SDS011;5106;50.926;7.080;2023-06-26T00:07:09;7.15;;;6.25;;
10132;SDS011;5106;50.926;7.080;2023-06-26T00:09:35;9.02;;;6.45;;
10132;SDS011;5106;50.926;7.080;2023-06-26T00:12:01;8.50;;;6.57;;
10132;SDS011;5106;50.926;7.080;2023-06-26T00:14:26;7.15;;;6.10;;
10132;SDS011;5106;50.926;7.080;2023-06-26T00:16:52;9.23;;;6.63;;
10132;SDS011;5106;50.926;7.080;2023-06-26T00:19:18;6.90;;;6.20;;
10132;SDS011;5106;50.926;7.080;2023-06-26T00:21:44;7.10;;;6.40;;
10132;SDS011;5106;50.926;7.080;2023-06-26T00:24:16;7.43;;;6.35;;
10132;SDS011;5106;50.926;7.080;2023-06-26T00:26:42;9.25;;;6.30;;
10132;SDS011;5106;50.926;7.080;2023-06-26T00:29:10;7.55;;;6.43;;
10132;SDS011;5106;50.926;7.080;2023-06-26T00:31:36;6.82;;;6.22;;
10132;SDS011;5106;50.926;7.080;2023-06-26T00:34:03;9.63;;;6.30;;
10132;SDS011;5106;50.926;7.080;2023-06-26T00:36:28;11.88;;;6.28;;
10132;SDS011;5106;50.926;7.080;2023-06-26T00:38:54;6.68;;;5.97;;
10132;SDS011;5106;50.926;7.080;2023-06-26T00:41:19;7.50;;;6.38;;
10132;SDS011;5106;50.926;7.080;2023-06-26T00:43:45;7.50;;;6.10;;
10132;SDS011;5106;50.926;7.080;2023-06-26T00:46:12;7.38;;;6.18;;
10132;SDS011;5106;50.926;7.080;2023-06-26T00:48:39;6.95;;;6.22;;
10132;SDS011;5106;50.926;7.080;2023-06-26T00:51:06;7.38;;;6.40;;
10132;SDS011;5106;50.926;7.080;2023-06-26T00:53:32;7.00;;;6.30;;
10132;SDS011;5106;50.926;7.080;2023-06-26T00:55:59;7.85;;;6.65;;
10132;SDS011;5106;50.926;7.080;2023-06-26T00:58:26;9.02;;;7.25;;
10132;SDS011;5106;50.926;7.080;2023-06-26T01:00:52;7.05;;;6.40;;
10132;SDS011;5106;50.926;7.080;2023-06-26T01:03:18;10.10;;;6.75;;
10132;SDS011;5106;50.926;7.080;2023-06-26T01:05:51;7.05;;;6.35;;
10132;SDS011;5106;50.926;7.080;2023-06-26T01:08:18;9.98;;;6.38;;
10132;SDS011;5106;50.926;7.080;2023-06-26T01:10:44;8.00;;;6.13;;
10132;SDS011;5106;50.926;7.080;2023-06-26T01:13:15;9.65;;;6.47;;
10132;SDS011;5106;50.926;7.080;2023-06-26T01:15:41;8.07;;;6.72;;
10132;SDS011;5106;50.926;7.080;2023-06-26T01:18:06;6.68;;;6.05;;
10132;SDS011;5106;50.926;7.080;2023-06-26T01:20:37;8.00;;;6.75;;
10132;SDS011;5106;50.926;7.080;2023-06-26T01:28:29;7.18;;;6.38;;
10132;SDS011;5106;50.926;7.080;2023-06-26T01:30:56;9.82;;;6.38;;
10132;SDS011;5106;50.926;7.080;2023-06-26T01:33:23;8.57;;;6.47;;
10132;SDS011;5106;50.926;7.080;2023-06-26T01:35:49;6.80;;;6.20;;
10132;SDS011;5106;50.926;7.080;2023-06-26T01:38:16;10.70;;;6.50;;
10132;SDS011;5106;50.926;7.080;2023-06-26T01:40:43;6.93;;;6.32;;
10132;SDS011;5106;50.926;7.080;2023-06-26T01:43:20;7.53;;;6.70;;
10132;SDS011;5106;50.926;7.080;2023-06-26T01:45:54;8.88;;;6.28;;
10132;SDS011;5106;50.926;7.080;2023-06-26T01:48:26;8.40;;;6.95;;
10132;SDS011;5106;50.926;7.080;2023-06-26T01:50:56;6.72;;;6.10;;
10132;SDS011;5106;50.926;7.080;2023-06-26T01:53:25;6.70;;;6.10;;
10132;SDS011;5106;50.926;7.080;2023-06-26T01:56:05;7.10;;;6.40;;
10132;SDS011;5106;50.926;7.080;2023-06-26T01:58:33;6.97;;;6.28;;
10132;SDS011;5106;50.926;7.080;2023-06-26T02:01:02;7.05;;;6.35;;
10132;SDS011;5106;50.926;7.080;2023-06-26T02:03:27;7.68;;;6.45;;
10132;SDS011;5106;50.926;7.080;2023-06-26T02:05:53;7.95;;;6.10;;
10132;SDS011;5106;50.926;7.080;2023-06-26T02:08:18;7.68;;;6.55;;
10132;SDS011;5106;50.926;7.080;2023-06-26T02:10:44;6.95;;;6.25;;
10132;SDS011;5106;50.926;7.080;2023-06-26T02:13:09;7.57;;;6.60;;
10132;SDS011;5106;50.926;7.080;2023-06-26T02:15:35;8.55;;;6.88;;
10132;SDS011;5106;50.926;7.080;2023-06-26T02:18:00;6.78;;;6.07;;
10132;SDS011;5106;50.926;7.080;2023-06-26T02:20:26;9.43;;;6.45;;
10132;SDS011;5106;50.926;7.080;2023-06-26T02:22:51;6.72;;;5.95;;
10132;SDS011;5106;50.926;7.080;2023-06-26T02:25:17;6.50;;;5.90;;
10132;SDS011;5106;50.926;7.080;2023-06-26T02:27:43;6.95;;;6.25;;
10132;SDS011;5106;50.926;7.080;2023-06-26T02:30:08;7.10;;;6.40;;
10132;SDS011;5106;50.926;7.080;2023-06-26T02:32:34;6.85;;;6.13;;
10132;SDS011;5106;50.926;7.080;2023-06-26T02:35:00;7.00;;;6.30;;
10132;SDS011;5106;50.926;7.080;2023-06-26T02:37:26;8.60;;;6.20;;
10132;SDS011;5106;50.926;7.080;2023-06-26T02:39:52;8.10;;;6.55;;
10132;SDS011;5106;50.926;7.080;2023-06-26T02:42:17;6.38;;;5.78;;
10132;SDS011;5106;50.926;7.080;2023-06-26T02:44:43;8.05;;;6.88;;
10132;SDS011;5106;50.926;7.080;2023-06-26T02:47:08;6.95;;;6.28;;
10132;SDS011;5106;50.926;7.080;2023-06-26T02:49:34;7.35;;;6.65;;
10132;SDS011;5106;50.926;7.080;2023-06-26T02:51:59;6.95;;;6.35;;
10132;SDS011;5106;50.926;7.080;2023-06-26T02:54:25;7.25;;;6.55;;
10132;SDS011;5106;50.926;7.080;2023-06-26T02:56:51;7.55;;;6.47;;
10132;SDS011;5106;50.926;7.080;2023-06-26T02:59:16;7.88;;;6.63;;
10132;SDS011;5106;50.926;7.080;2023-06-26T03:01:42;6.82;;;6.13;;
10132;SDS011;5106;50.926;7.080;2023-06-26T03:04:08;7.97;;;6.47;;
10132;SDS011;5106;50.926;7.080;2023-06-26T03:06:35;7.60;;;6.28;;
10132;SDS011;5106;50.926;7.080;2023-06-26T03:09:01;7.13;;;6.43;;
10132;SDS011;5106;50.926;7.080;2023-06-26T03:11:27;8.60;;;6.45;;
10132;SDS011;5106;50.926;7.080;2023-06-26T03:13:53;8.32;;;6.78;;
10132;SDS011;5106;50.926;7.080;2023-06-26T03:16:19;7.38;;;6.53;;
10132;SDS011;5106;50.926;7.080;2023-06-26T03:18:44;8.07;;;6.90;;
10132;SDS011;5106;50.926;7.080;2023-06-26T03:21:10;7.25;;;6.55;;
10132;SDS011;5106;50.926;7.080;2023-06-26T03:23:35;6.75;;;6.05;;
10132;SDS011;5106;50.926;7.080;2023-06-26T03:26:01;6.97;;;6.30;;
10132;SDS011;5106;50.926;7.080;2023-06-26T03:28:26;6.68;;;6.00;;
10132;SDS011;5106;50.926;7.080;2023-06-26T03:30:52;8.30;;;6.85;;
10132;SDS011;5106;50.926;7.080;2023-06-26T03:33:18;9.23;;;6.68;;
10132;SDS011;5106;50.926;7.080;2023-06-26T03:35:43;8.93;;;6.22;;
10132;SDS011;5106;50.926;7.080;2023-06-26T03:38:09;7.90;;;6.57;;
10132;SDS011;5106;50.926;7.080;2023-06-26T03:40:34;10.27;;;6.72;;
10132;SDS011;5106;50.926;7.080;2023-06-26T03:43:00;7.38;;;6.60;;
10132;SDS011;5106;50.926;7.080;2023-06-26T03:45:26;7.53;;;6.75;;
10132;SDS011;5106;50.926;7.080;2023-06-26T03:47:51;7.15;;;6.45;;
10132;SDS011;5106;50.926;7.080;2023-06-26T03:50:17;7.03;;;6.22;;
10132;SDS011;5106;50.926;7.080;2023-06-26T03:52:42;8.27;;;6.43;;
10132;SDS011;5106;50.926;7.080;2023-06-26T03:55:08;7.18;;;6.55;;
10132;SDS011;5106;50.926;7.080;2023-06-26T03:57:34;8.25;;;6.15;;
10132;SDS011;5106;50.926;7.080;2023-06-26T04:00:00;8.65;;;6.40;;
10132;SDS011;5106;50.926;7.080;2023-06-26T04:02:25;7.28;;;6.57;;
10132;SDS011;5106;50.926;7.080;2023-06-26T04:04:51;8.02;;;7.22;;
10132;SDS011;5106;50.926;7.080;2023-06-26T04:07:17;7.15;;;6.20;;
10132;SDS011;5106;50.926;7.080;2023-06-26T04:09:43;7.25;;;6.55;;
10132;SDS011;5106;50.926;7.080;2023-06-26T04:12:09;7.15;;;6.45;;
10132;SDS011;5106;50.926;7.080;2023-06-26T04:14:34;7.70;;;6.93;;
10132;SDS011;5106;50.926;7.080;2023-06-26T04:17:00;8.07;;;6.78;;
10132;SDS011;5106;50.926;7.080;2023-06-26T04:19:29;8.60;;;7.00;;
10132;SDS011;5106;50.926;7.080;2023-06-26T04:21:55;7.50;;;6.72;;
10132;SDS011;5106;50.926;7.080;2023-06-26T04:24:21;8.07;;;6.90;;
10132;SDS011;5106;50.926;7.080;2023-06-26T04:26:46;7.50;;;6.80;;
10132;SDS011;5106;50.926;7.080;2023-06-26T04:29:12;7.38;;;6.68;;
10132;SDS011;5106;50.926;7.080;2023-06-26T04:31:38;7.55;;;6.82;;
10132;SDS011;5106;50.926;7.080;2023-06-26T04:34:04;8.77;;;6.65;;
10132;SDS011;5106;50.926;7.080;2023-06-26T04:36:30;18.58;;;8.57;;
10132;SDS011;5106;50.926;7.080;2023-06-26T04:38:56;7.03;;;6.32;;
10132;SDS011;5106;50.926;7.080;2023-06-26T04:41:23;10.70;;;7.25;;
10132;SDS011;5106;50.926;7.080;2023-06-26T04:43:49;8.07;;;6.90;;
10132;SDS011;5106;50.926;7.080;2023-06-26T04:46:15;7.82;;;7.05;;
10132;SDS011;5106;50.926;7.080;2023-06-26T04:48:41;7.15;;;6.07;;
10132;SDS011;5106;50.926;7.080;2023-06-26T04:51:06;7.70;;;5.60;;
10132;SDS011;5106;50.926;7.080;2023-06-26T04:53:32;7.50;;;4.95;;
10132;SDS011;5106;50.926;7.080;2023-06-26T04:55:57;5.93;;;4.78;;
10132;SDS011;5106;50.926;7.080;2023-06-26T04:58:23;6.50;;;5.00;;
10132;SDS011;5106;50.926;7.080;2023-06-26T05:00:48;7.72;;;5.15;;
10132;SDS011;5106;50.926;7.080;2023-06-26T05:03:17;6.85;;;4.97;;
10132;SDS011;5106;50.926;7.080;2023-06-26T05:05:43;5.15;;;4.65;;
10132;SDS011;5106;50.926;7.080;2023-06-26T05:08:13;9.48;;;4.80;;
10132;SDS011;5106;50.926;7.080;2023-06-26T05:10:42;5.82;;;4.65;;
10132;SDS011;5106;50.926;7.080;2023-06-26T05:13:09;8.50;;;4.78;;
10132;SDS011;5106;50.926;7.080;2023-06-26T05:15:34;4.65;;;4.25;;
10132;SDS011;5106;50.926;7.080;2023-06-26T05:18:00;7.35;;;4.78;;
10132;SDS011;5106;50.926;7.080;2023-06-26T05:20:25;5.82;;;4.57;;
10132;SDS011;5106;50.926;7.080;2023-06-26T05:22:51;7.93;;;4.70;;
10132;SDS011;5106;50.926;7.080;2023-06-26T05:25:18;6.28;;;4.93;;
10132;SDS011;5106;50.926;7.080;2023-06-26T05:27:46;7.10;;;4.38;;
10132;SDS011;5106;50.926;7.080;2023-06-26T05:30:12;5.47;;;4.45;;
10132;SDS011;5106;50.926;7.080;2023-06-26T05:32:38;5.35;;;4.82;;
10132;SDS011;5106;50.926;7.080;2023-06-26T05:35:05;6.25;;;4.75;;
10132;SDS011;5106;50.926;7.080;2023-06-26T05:37:33;7.55;;;4.50;;
10132;SDS011;5106;50.926;7.080;2023-06-26T05:40:00;5.95;;;4.53;;
10132;SDS011;5106;50.926;7.080;2023-06-26T05:42:29;6.70;;;4.72;;
10132;SDS011;5106;50.926;7.080;2023-06-26T05:44:55;6.18;;;4.70;;
10132;SDS011;5106;50.926;7.080;2023-06-26T05:47:21;5.15;;;4.38;;
10132;SDS011;5106;50.926;7.080;2023-06-26T05:49:47;8.48;;;5.07;;
10132;SDS011;5106;50.926;7.080;2023-06-26T05:52:12;5.32;;;4.32;;
10132;SDS011;5106;50.926;7.080;2023-06-26T05:54:38;5.72;;;4.35;;
10132;SDS011;5106;50.926;7.080;2023-06-26T05:57:04;7.63;;;4.65;;
10132;SDS011;5106;50.926;7.080;2023-06-26T05:59:33;5.40;;;4.35;;
10132;SDS011;5106;50.926;7.080;2023-06-26T06:02:01;5.07;;;4.20;;
10132;SDS011;5106;50.926;7.080;2023-06-26T06:04:27;6.40;;;4.18;;
10132;SDS011;5106;50.926;7.080;2023-06-26T06:06:54;9.05;;;4.47;;
10132;SDS011;5106;50.926;7.080;2023-06-26T06:09:20;8.20;;;4.20;;
10132;SDS011;5106;50.926;7.080;2023-06-26T06:11:45;5.38;;;4.35;;
10132;SDS011;5106;50.926;7.080;2023-06-26T06:14:11;5.93;;;4.60;;
10132;SDS011;5106;50.926;7.080;2023-06-26T06:16:36;9.50;;;4.45;;
10132;SDS011;5106;50.926;7.080;2023-06-26T06:19:02;7.75;;;4.80;;
10132;SDS011;5106;50.926;7.080;2023-06-26T06:21:29;6.10;;;4.68;;
10132;SDS011;5106;50.926;7.080;2023-06-26T06:23:55;5.90;;;4.30;;
10132;SDS011;5106;50.926;7.080;2023-06-26T06:26:20;9.68;;;4.97;;
10132;SDS011;5106;50.926;7.080;2023-06-26T06:28:46;10.00;;;4.78;;
10132;SDS011;5106;50.926;7.080;2023-06-26T06:31:11;8.20;;;4.47;;
10132;SDS011;5106;50.926;7.080;2023-06-26T06:33:37;6.60;;;4.60;;
10132;SDS011;5106;50.926;7.080;2023-06-26T06:36:03;5.30;;;4.55;;
10132;SDS011;5106;50.926;7.080;2023-06-26T06:38:29;6.13;;;4.60;;
10132;SDS011;5106;50.926;7.080;2023-06-26T06:40:55;8.85;;;4.60;;
10132;SDS011;5106;50.926;7.080;2023-06-26T06:43:20;5.63;;;4.40;;
10132;SDS011;5106;50.926;7.080;2023-06-26T06:45:46;6.47;;;4.57;;
10132;SDS011;5106;50.926;7.080;2023-06-26T06:48:11;8.55;;;4.75;;
10132;SDS011;5106;50.926;7.080;2023-06-26T06:50:37;6.63;;;4.43;;
10132;SDS011;5106;50.926;7.080;2023-06-26T06:53:02;6.25;;;4.18;;
10132;SDS011;5106;50.926;7.080;2023-06-26T06:55:28;6.15;;;4.22;;
10132;SDS011;5106;50.926;7.080;2023-06-26T06:57:54;7.30;;;4.55;;
10132;SDS011;5106;50.926;7.080;2023-06-26T07:00:19;8.13;;;4.63;;
10132;SDS011;5106;50.926;7.080;2023-06-26T07:02:45;8.48;;;4.47;;
10132;SDS011;5106;50.926;7.080;2023-06-26T07:05:11;8.27;;;4.20;;
10132;SDS011;5106;50.926;7.080;2023-06-26T07:07:37;8.20;;;4.57;;
10132;SDS011;5106;50.926;7.080;2023-06-26T07:10:05;8.73;;;4.43;;
10132;SDS011;5106;50.926;7.080;2023-06-26T07:12:35;7.57;;;4.20;;
10132;SDS011;5106;50.926;7.080;2023-06-26T07:15:01;8.63;;;4.72;;
10132;SDS011;5106;50.926;7.080;2023-06-26T07:17:29;8.80;;;4.43;;
10132;SDS011;5106;50.926;7.080;2023-06-26T07:19:58;8.55;;;4.47;;
10132;SDS011;5106;50.926;7.080;2023-06-26T07:22:24;9.10;;;4.47;;
10132;SDS011;5106;50.926;7.080;2023-06-26T07:24:50;9.38;;;4.40;;
10132;SDS011;5106;50.926;7.080;2023-06-26T07:27:16;8.60;;;4.40;;
10132;SDS011;5106;50.926;7.080;2023-06-26T07:29:43;9.35;;;4.85;;
10132;SDS011;5106;50.926;7.080;2023-06-26T07:32:08;8.70;;;4.63;;
10132;SDS011;5106;50.926;7.080;2023-06-26T07:34:34;8.23;;;4.03;;
10132;SDS011;5106;50.926;7.080;2023-06-26T07:37:00;7.43;;;4.50;;
10132;SDS011;5106;50.926;7.080;2023-06-26T07:39:26;8.38;;;4.40;;
10132;SDS011;5106;50.926;7.080;2023-06-26T07:41:51;9.07;;;4.20;;
10132;SDS011;5106;50.926;7.080;2023-06-26T07:44:17;8.55;;;4.70;;
10132;SDS011;5106;50.926;7.080;2023-06-26T07:46:43;7.25;;;4.10;;
10132;SDS011;5106;50.926;7.080;2023-06-26T07:49:09;7.68;;;4.72;;
10132;SDS011;5106;50.926;7.080;2023-06-26T07:51:35;12.80;;;8.75;;
10132;SDS011;5106;50.926;7.080;2023-06-26T07:54:01;12.15;;;8.70;;
10132;SDS011;5106;50.926;7.080;2023-06-26T07:56:27;8.52;;;5.68;;
10132;SDS011;5106;50.926;7.080;2023-06-26T07:58:52;8.40;;;4.68;;
10132;SDS011;5106;50.926;7.080;2023-06-26T08:01:18;7.05;;;4.43;;
10132;SDS011;5106;50.926;7.080;2023-06-26T08:03:43;6.40;;;4.40;;
10132;SDS011;5106;50.926;7.080;2023-06-26T08:06:09;6.20;;;4.45;;
10132;SDS011;5106;50.926;7.080;2023-06-26T08:08:35;5.72;;;4.80;;
10132;SDS011;5106;50.926;7.080;2023-06-26T08:11:00;8.82;;;4.70;;
10132;SDS011;5106;50.926;7.080;2023-06-26T08:13:26;9.20;;;4.30;;
10132;SDS011;5106;50.926;7.080;2023-06-26T08:15:52;8.88;;;4.63;;
10132;SDS011;5106;50.926;7.080;2023-06-26T08:18:18;4.70;;;4.13;;
10132;SDS011;5106;50.926;7.080;2023-06-26T08:20:44;9.35;;;4.75;;
10132;SDS011;5106;50.926;7.080;2023-06-26T08:23:09;10.35;;;4.90;;
10132;SDS011;5106;50.926;7.080;2023-06-26T08:25:35;6.43;;;4.72;;
10132;SDS011;5106;50.926;7.080;2023-06-26T08:28:00;6.60;;;4.50;;
10132;SDS011;5106;50.926;7.080;2023-06-26T08:30:26;8.02;;;4.75;;
10132;SDS011;5106;50.926;7.080;2023-06-26T08:32:54;8.57;;;4.15;;
10132;SDS011;5106;50.926;7.080;2023-06-26T08:35:22;8.60;;;4.35;;
10132;SDS011;5106;50.926;7.080;2023-06-26T08:37:48;8.05;;;4.35;;
10132;SDS011;5106;50.926;7.080;2023-06-26T08:40:17;8.60;;;4.40;;
10132;SDS011;5106;50.926;7.080;2023-06-26T08:42:43;7.63;;;4.53;;
10132;SDS011;5106;50.926;7.080;2023-06-26T08:45:09;7.95;;;4.50;;
10132;SDS011;5106;50.926;7.080;2023-06-26T08:47:35;8.25;;;5.20;;
10132;SDS011;5106;50.926;7.080;2023-06-26T08:52:43;7.78;;;5.18;;
10132;SDS011;5106;50.926;7.080;2023-06-26T08:55:15;9.13;;;6.43;;
10132;SDS011;5106;50.926;7.080;2023-06-26T08:57:41;7.03;;;5.57;;
10132;SDS011;5106;50.926;7.080;2023-06-26T09:00:07;7.75;;;4.70;;
10132;SDS011;5106;50.926;7.080;2023-06-26T09:02:34;6.05;;;4.50;;
10132;SDS011;5106;50.926;7.080;2023-06-26T09:05:01;9.02;;;5.07;;
10132;SDS011;5106;50.926;7.080;2023-06-26T09:07:31;6.75;;;4.45;;
10132;SDS011;5106;50.926;7.080;2023-06-26T09:09:56;7.22;;;4.10;;
10132;SDS011;5106;50.926;7.080;2023-06-26T09:12:22;9.80;;;4.07;;
10132;SDS011;5106;50.926;7.080;2023-06-26T09:14:51;6.85;;;4.07;;
10132;SDS011;5106;50.926;7.080;2023-06-26T09:17:19;7.80;;;4.57;;
10132;SDS011;5106;50.926;7.080;2023-06-26T09:19:50;4.88;;;4.05;;
10132;SDS011;5106;50.926;7.080;2023-06-26T09:22:16;7.95;;;4.20;;
10132;SDS011;5106;50.926;7.080;2023-06-26T09:24:42;7.00;;;4.32;;
10132;SDS011;5106;50.926;7.080;2023-06-26T09:27:09;9.43;;;4.18;;
10132;SDS011;5106;50.926;7.080;2023-06-26T09:29:34;7.13;;;4.53;;
10132;SDS011;5106;50.926;7.080;2023-06-26T09:32:00;5.25;;;3.63;;
10132;SDS011;5106;50.926;7.080;2023-06-26T09:34:30;9.48;;;4.47;;
10132;SDS011;5106;50.926;7.080;2023-06-26T09:36:57;6.63;;;3.90;;
10132;SDS011;5106;50.926;7.080;2023-06-26T09:39:23;6.95;;;3.47;;
10132;SDS011;5106;50.926;7.080;2023-06-26T09:41:49;6.18;;;3.67;;
10132;SDS011;5106;50.926;7.080;2023-06-26T09:44:15;4.97;;;3.70;;
10132;SDS011;5106;50.926;7.080;2023-06-26T09:46:41;6.32;;;3.85;;
10132;SDS011;5106;50.926;7.080;2023-06-26T09:49:10;7.53;;;4.32;;
10132;SDS011;5106;50.926;7.080;2023-06-26T09:51:37;9.52;;;4.45;;
10132;SDS011;5106;50.926;7.080;2023-06-26T09:54:04;5.60;;;3.83;;
10132;SDS011;5106;50.926;7.080;2023-06-26T09:56:31;5.82;;;3.70;;
10132;SDS011;5106;50.926;7.080;2023-06-26T09:59:02;6.45;;;3.78;;
10132;SDS011;5106;50.926;7.080;2023-06-26T10:01:30;5.75;;;3.70;;
10132;SDS011;5106;50.926;7.080;2023-06-26T10:03:57;8.55;;;3.90;;
10132;SDS011;5106;50.926;7.080;2023-06-26T10:06:27;6.32;;;3.78;;
10132;SDS011;5106;50.926;7.080;2023-06-26T10:08:58;6.32;;;3.90;;
10132;SDS011;5106;50.926;7.080;2023-06-26T10:11:32;6.47;;;3.60;;
10132;SDS011;5106;50.926;7.080;2023-06-26T10:14:04;5.65;;;3.30;;
10132;SDS011;5106;50.926;7.080;2023-06-26T10:16:34;4.53;;;3.17;;
10132;SDS011;5106;50.926;7.080;2023-06-26T10:19:03;6.60;;;3.28;;
10132;SDS011;5106;50.926;7.080;2023-06-26T10:21:31;5.13;;;3.15;;
10132;SDS011;5106;50.926;7.080;2023-06-26T10:24:03;10.27;;;3.78;;
10132;SDS011;5106;50.926;7.080;2023-06-26T10:26:31;5.57;;;3.15;;
10132;SDS011;5106;50.926;7.080;2023-06-26T10:29:01;4.75;;;3.00;;
10132;SDS011;5106;50.926;7.080;2023-06-26T10:31:28;8.20;;;3.22;;
10132;SDS011;5106;50.926;7.080;2023-06-26T10:33:55;6.03;;;3.25;;
10132;SDS011;5106;50.926;7.080;2023-06-26T10:36:27;7.35;;;3.45;;
10132;SDS011;5106;50.926;7.080;2023-06-26T10:38:57;6.72;;;3.35;;
10132;SDS011;5106;50.926;7.080;2023-06-26T10:41:24;3.75;;;2.63;;
10132;SDS011;5106;50.926;7.080;2023-06-26T10:44:09;6.28;;;2.63;;
10132;SDS011;5106;50.926;7.080;2023-06-26T10:46:52;6.63;;;3.25;;
10132;SDS011;5106;50.926;7.080;2023-06-26T10:49:28;6.43;;;3.22;;
10132;SDS011;5106;50.926;7.080;2023-06-26T10:51:54;7.47;;;2.53;;
10132;SDS011;5106;50.926;7.080;2023-06-26T10:54:23;4.30;;;2.28;;
10132;SDS011;5106;50.926;7.080;2023-06-26T10:56:54;10.10;;;2.60;;
10132;SDS011;5106;50.926;7.080;2023-06-26T10:59:23;3.88;;;2.38;;
10132;SDS011;5106;50.926;7.080;2023-06-26T11:01:57;6.75;;;3.17;;
10132;SDS011;5106;50.926;7.080;2023-06-26T11:04:56;5.40;;;2.58;;
10132;SDS011;5106;50.926;7.080;2023-06-26T11:07:23;6.88;;;3.00;;
10132;SDS011;5106;50.926;7.080;2023-06-26T11:12:35;4.00;;;2.15;;
10132;SDS011;5106;50.926;7.080;2023-06-26T11:15:11;7.65;;;2.80;;
10132;SDS011;5106;50.926;7.080;2023-06-26T11:17:38;5.07;;;2.70;;
10132;SDS011;5106;50.926;7.080;2023-06-26T11:20:05;5.20;;;2.65;;
10132;SDS011;5106;50.926;7.080;2023-06-26T11:22:35;4.60;;;2.50;;
10132;SDS011;5106;50.926;7.080;2023-06-26T11:25:06;6.57;;;3.10;;
10132;SDS011;5106;50.926;7.080;2023-06-26T11:27:37;4.47;;;2.45;;
10132;SDS011;5106;50.926;7.080;2023-06-26T11:30:03;3.35;;;2.00;;
10132;SDS011;5106;50.926;7.080;2023-06-26T11:32:32;5.05;;;1.90;;
10132;SDS011;5106;50.926;7.080;2023-06-26T11:34:58;6.18;;;2.30;;
10132;SDS011;5106;50.926;7.080;2023-06-26T11:37:24;5.22;;;2.25;;
10132;SDS011;5106;50.926;7.080;2023-06-26T11:39:50;9.20;;;2.50;;
10132;SDS011;5106;50.926;7.080;2023-06-26T11:42:17;4.75;;;2.22;;
10132;SDS011;5106;50.926;7.080;2023-06-26T11:44:44;4.22;;;2.17;;
10132;SDS011;5106;50.926;7.080;2023-06-26T11:47:14;4.22;;;2.55;;
10132;SDS011;5106;50.926;7.080;2023-06-26T11:49:47;7.65;;;2.58;;
10132;SDS011;5106;50.926;7.080;2023-06-26T11:52:14;5.45;;;2.63;;
10132;SDS011;5106;50.926;7.080;2023-06-26T11:54:41;4.15;;;2.20;;
10132;SDS011;5106;50.926;7.080;2023-06-26T11:57:13;3.65;;;2.15;;
10132;SDS011;5106;50.926;7.080;2023-06-26T11:59:39;4.30;;;2.47;;
10132;SDS011;5106;50.926;7.080;2023-06-26T12:02:06;5.65;;;2.53;;
10132;SDS011;5106;50.926;7.080;2023-06-26T12:04:34;3.10;;;2.30;;
10132;SDS011;5106;50.926;7.080;2023-06-26T12:07:04;4.82;;;2.42;;
10132;SDS011;5106;50.926;7.080;2023-06-26T12:09:33;4.32;;;2.60;;
10132;SDS011;5106;50.926;7.080;2023-06-26T12:12:03;5.72;;;2.65;;
10132;SDS011;5106;50.926;7.080;2023-06-26T12:14:29;4.78;;;2.30;;
10132;SDS011;5106;50.926;7.080;2023-06-26T12:16:56;5.30;;;2.00;;
10132;SDS011;5106;50.926;7.080;2023-06-26T12:19:29;7.30;;;2.08;;
10132;SDS011;5106;50.926;7.080;2023-06-26T12:21:55;4.05;;;2.10;;
10132;SDS011;5106;50.926;7.080;2023-06-26T12:24:22;3.40;;;1.83;;
10132;SDS011;5106;50.926;7.080;2023-06-26T12:26:52;5.38;;;2.08;;
10132;SDS011;5106;50.926;7.080;2023-06-26T12:29:21;5.85;;;2.38;;
10132;SDS011;5106;50.926;7.080;2023-06-26T12:31:53;4.32;;;2.13;;
10132;SDS011;5106;50.926;7.080;2023-06-26T12:34:19;3.88;;;2.10;;
10132;SDS011;5106;50.926;7.080;2023-06-26T12:36:49;3.42;;;2.03;;
10132;SDS011;5106;50.926;7.080;2023-06-26T12:39:19;4.18;;;2.00;;
10132;SDS011;5106;50.926;7.080;2023-06-26T12:41:46;3.67;;;2.17;;
10132;SDS011;5106;50.926;7.080;2023-06-26T12:44:17;4.28;;;2.10;;
10132;SDS011;5106;50.926;7.080;2023-06-26T12:47:02;4.05;;;2.20;;
10132;SDS011;5106;50.926;7.080;2023-06-26T12:49:35;7.68;;;2.22;;
10132;SDS011;5106;50.926;7.080;2023-06-26T12:52:12;4.05;;;2.28;;
10132;SDS011;5106;50.926;7.080;2023-06-26T12:54:39;4.13;;;1.90;;
10132;SDS011;5106;50.926;7.080;2023-06-26T12:57:06;6.28;;;2.40;;
10132;SDS011;5106;50.926;7.080;2023-06-26T12:59:38;4.88;;;2.38;;
10132;SDS011;5106;50.926;7.080;2023-06-26T13:02:03;9.90;;;2.53;;
10132;SDS011;5106;50.926;7.080;2023-06-26T13:04:30;7.45;;;2.35;;
10132;SDS011;5106;50.926;7.080;2023-06-26T13:06:55;7.72;;;2.08;;
10132;SDS011;5106;50.926;7.080;2023-06-26T13:09:24;4.70;;;1.83;;
10132;SDS011;5106;50.926;7.080;2023-06-26T13:11:51;4.18;;;2.08;;
10132;SDS011;5106;50.926;7.080;2023-06-26T13:14:17;4.93;;;1.85;;
10132;SDS011;5106;50.926;7.080;2023-06-26T13:16:42;5.72;;;2.22;;
10132;SDS011;5106;50.926;7.080;2023-06-26T13:19:08;4.90;;;2.03;;
10132;SDS011;5106;50.926;7.080;2023-06-26T13:21:34;2.65;;;1.70;;
10132;SDS011;5106;50.926;7.080;2023-06-26T13:24:00;3.58;;;1.67;;
10132;SDS011;5106;50.926;7.080;2023-06-26T13:26:28;3.22;;;1.80;;
10132;SDS011;5106;50.926;7.080;2023-06-26T13:28:54;7.70;;;1.80;;
10132;SDS011;5106;50.926;7.080;2023-06-26T13:31:20;3.28;;;1.88;;
10132;SDS011;5106;50.926;7.080;2023-06-26T13:33:46;8.25;;;2.30;;
10132;SDS011;5106;50.926;7.080;2023-06-26T13:36:17;7.25;;;1.80;;
10132;SDS011;5106;50.926;7.080;2023-06-26T13:38:43;5.05;;;1.90;;
10132;SDS011;5106;50.926;7.080;2023-06-26T13:41:09;3.70;;;1.80;;
10132;SDS011;5106;50.926;7.080;2023-06-26T13:43:35;3.03;;;1.80;;
10132;SDS011;5106;50.926;7.080;2023-06-26T13:46:01;7.85;;;2.25;;
10132;SDS011;5106;50.926;7.080;2023-06-26T13:48:28;5.53;;;1.92;;
10132;SDS011;5106;50.926;7.080;2023-06-26T13:50:54;5.18;;;1.77;;
10132;SDS011;5106;50.926;7.080;2023-06-26T13:53:20;7.20;;;1.80;;
10132;SDS011;5106;50.926;7.080;2023-06-26T13:55:45;6.40;;;1.88;;
10132;SDS011;5106;50.926;7.080;2023-06-26T13:58:11;4.10;;;1.80;;
10132;SDS011;5106;50.926;7.080;2023-06-26T14:00:38;9.25;;;1.80;;
10132;SDS011;5106;50.926;7.080;2023-06-26T14:03:04;6.82;;;1.83;;
10132;SDS011;5106;50.926;7.080;2023-06-26T14:05:31;5.03;;;2.00;;
10132;SDS011;5106;50.926;7.080;2023-06-26T14:07:57;6.60;;;1.88;;
10132;SDS011;5106;50.926;7.080;2023-06-26T14:10:23;5.22;;;1.90;;
10132;SDS011;5106;50.926;7.080;2023-06-26T14:12:49;10.98;;;1.90;;
10132;SDS011;5106;50.926;7.080;2023-06-26T14:15:15;5.32;;;1.67;;
10132;SDS011;5106;50.926;7.080;2023-06-26T14:17:40;5.05;;;1.70;;
10132;SDS011;5106;50.926;7.080;2023-06-26T14:20:07;4.03;;;1.60;;
10132;SDS011;5106;50.926;7.080;2023-06-26T14:22:38;7.05;;;1.92;;
10132;SDS011;5106;50.926;7.080;2023-06-26T14:25:05;5.25;;;1.75;;
10132;SDS011;5106;50.926;7.080;2023-06-26T14:27:34;4.07;;;1.50;;
10132;SDS011;5106;50.926;7.080;2023-06-26T14:30:01;2.60;;;1.48;;
10132;SDS011;5106;50.926;7.080;2023-06-26T14:32:27;5.90;;;1.50;;
10132;SDS011;5106;50.926;7.080;2023-06-26T14:34:53;4.55;;;1.52;;
10132;SDS011;5106;50.926;7.080;2023-06-26T14:37:18;2.97;;;1.42;;
10132;SDS011;5106;50.926;7.080;2023-06-26T14:39:45;3.83;;;1.67;;
10132;SDS011;5106;50.926;7.080;2023-06-26T14:42:11;3.58;;;1.75;;
10132;SDS011;5106;50.926;7.080;2023-06-26T14:44:37;4.43;;;1.60;;
10132;SDS011;5106;50.926;7.080;2023-06-26T14:47:03;6.25;;;1.67;;
10132;SDS011;5106;50.926;7.080;2023-06-26T14:49:29;3.58;;;1.58;;
10132;SDS011;5106;50.926;7.080;2023-06-26T14:51:55;3.67;;;1.70;;
10132;SDS011;5106;50.926;7.080;2023-06-26T14:54:20;8.75;;;2.08;;
10132;SDS011;5106;50.926;7.080;2023-06-26T14:56:46;3.92;;;1.75;;
10132;SDS011;5106;50.926;7.080;2023-06-26T14:59:11;10.07;;;2.10;;
10132;SDS011;5106;50.926;7.080;2023-06-26T15:01:38;7.07;;;2.00;;
10132;SDS011;5106;50.926;7.080;2023-06-26T15:04:04;3.78;;;1.75;;
10132;SDS011;5106;50.926;7.080;2023-06-26T15:06:30;4.32;;;1.75;;
10132;SDS011;5106;50.926;7.080;2023-06-26T15:08:57;5.55;;;1.77;;
10132;SDS011;5106;50.926;7.080;2023-06-26T15:11:23;3.80;;;1.60;;